Time;durP1;ratioP1;P1;durP2;ratioP2;P2;SDS_P1;SDS_P2;PMS_P1;PMS_P2;Temp;Humidity;BMP_temperature;BMP_pressure;BME280_temperature;BME280_humidity;BME280_pressure;Samples;Min_cycle;Max_cycle;Signal;HPM_P1;HPM_P2
2022/05/24 00:01:47;;;;;;;1.20;0.90;;;21.40;99.90;;;;;;5009654;28;20457;-79
2022/05/24 00:04:15;;;;;;;1.10;0.97;;;21.40;99.90;;;;;;5018398;28;20484;-79
2022/05/24 00:06:45;;;;;;;1.17;0.60;;;21.40;99.90;;;;;;5015152;28;20985;-79
2022/05/24 00:09:13;;;;;;;0.80;0.70;;;21.50;99.90;;;;;;5017872;28;20506;-79
2022/05/24 00:11:41;;;;;;;1.03;0.70;;;21.50;99.90;;;;;;5017942;28;20456;-79
2022/05/24 00:14:09;;;;;;;1.50;0.70;;;21.50;99.90;;;;;;5013107;28;20445;-78
2022/05/24 00:16:38;;;;;;;0.70;0.70;;;21.50;99.90;;;;;;5018360;28;20960;-79
2022/05/24 00:19:06;;;;;;;0.60;0.60;;;21.50;99.90;;;;;;5017700;28;20557;-79
2022/05/24 00:21:34;;;;;;;0.50;0.50;;;21.40;99.90;;;;;;5014749;28;20456;-77
2022/05/24 00:24:04;;;;;;;0.63;0.63;;;21.50;99.90;;;;;;5017849;28;20983;-79
2022/05/24 00:26:33;;;;;;;0.80;0.70;;;21.40;99.90;;;;;;5015081;28;20882;-79
2022/05/24 00:29:01;;;;;;;0.73;0.60;;;21.40;99.90;;;;;;5018998;28;20605;-79
2022/05/24 00:31:29;;;;;;;0.53;0.50;;;21.40;99.90;;;;;;5013845;28;21013;-79
2022/05/24 00:33:58;;;;;;;0.50;0.50;;;21.40;99.90;;;;;;5018444;28;21301;-79
2022/05/24 00:36:26;;;;;;;0.60;0.50;;;21.40;99.90;;;;;;5016541;28;20462;-79
2022/05/24 00:38:54;;;;;;;0.43;0.43;;;21.40;99.90;;;;;;5021424;28;20460;-79
2022/05/24 00:41:26;;;;;;;0.50;0.40;;;21.40;99.90;;;;;;5016935;28;20440;-79
2022/05/24 00:43:58;;;;;;;0.40;0.40;;;21.30;99.90;;;;;;5014846;28;20448;-79
2022/05/24 00:46:29;;;;;;;0.40;0.40;;;21.30;99.90;;;;;;5022844;28;21063;-78
2022/05/24 00:49:01;;;;;;;0.50;0.50;;;21.30;99.90;;;;;;5020362;28;20485;-79
2022/05/24 00:51:35;;;;;;;0.50;0.50;;;21.30;99.90;;;;;;5020172;28;20964;-79
2022/05/24 00:54:04;;;;;;;0.53;0.50;;;21.30;99.90;;;;;;5035818;28;20472;-79
2022/05/24 00:56:51;;;;;;;0.50;0.50;;;21.20;99.90;;;;;;5012937;28;20845;-79
2022/05/24 00:59:27;;;;;;;0.40;0.40;;;21.20;99.90;;;;;;5019367;28;20478;-79
2022/05/24 01:01:56;;;;;;;0.50;0.40;;;21.20;99.90;;;;;;5014323;28;20452;-79
2022/05/24 01:04:24;;;;;;;0.50;0.47;;;21.20;99.90;;;;;;5022848;28;20455;-79
2022/05/24 01:06:52;;;;;;;0.50;0.50;;;21.20;99.90;;;;;;5017609;28;20496;-79
2022/05/24 01:09:40;;;;;;;0.50;0.50;;;21.20;99.90;;;;;;5020647;28;20499;-80
2022/05/24 01:12:14;;;;;;;0.50;0.50;;;21.20;99.90;;;;;;5024802;28;20454;-80
2022/05/24 01:14:43;;;;;;;0.50;0.50;;;21.20;99.90;;;;;;5023086;28;20479;-79
2022/05/24 01:17:12;;;;;;;0.50;0.50;;;21.20;99.90;;;;;;5022514;28;20518;-79
2022/05/24 01:19:43;;;;;;;0.40;0.40;;;21.20;99.90;;;;;;5021664;28;20453;-80
2022/05/24 01:22:45;;;;;;;0.50;0.50;;;21.20;99.90;;;;;;5023414;28;20470;-80
2022/05/24 01:25:23;;;;;;;0.90;0.57;;;21.10;99.90;;;;;;5016573;28;20455;-78
2022/05/24 01:27:53;;;;;;;0.90;0.50;;;21.10;99.90;;;;;;5024000;28;20995;-79
2022/05/24 01:30:22;;;;;;;0.50;0.50;;;21.10;99.90;;;;;;5025209;28;20460;-78
2022/05/24 01:38:24;;;;;;;0.50;0.50;;;21.10;99.90;;;;;;5019578;28;20477;-79
2022/05/24 01:40:54;;;;;;;0.63;0.63;;;21.10;99.90;;;;;;5020418;28;20452;-78
2022/05/24 01:43:26;;;;;;;0.50;0.50;;;21.00;99.90;;;;;;5021749;28;20502;-78
2022/05/24 01:46:00;;;;;;;0.50;0.50;;;21.00;99.90;;;;;;5021734;28;20564;-79
2022/05/24 01:48:32;;;;;;;2.10;0.80;;;20.90;99.90;;;;;;5018956;28;21082;-79
2022/05/24 01:51:03;;;;;;;0.50;0.50;;;21.00;99.90;;;;;;5021401;28;20460;-79
2022/05/24 01:53:38;;;;;;;0.53;0.53;;;21.00;99.90;;;;;;5019814;28;20815;-78
2022/05/24 01:56:32;;;;;;;0.60;0.60;;;20.90;99.90;;;;;;5021402;28;20943;-78
2022/05/24 01:59:03;;;;;;;0.60;0.60;;;20.90;99.90;;;;;;5021742;28;20472;-78
2022/05/24 02:01:40;;;;;;;0.60;0.60;;;20.90;99.90;;;;;;5025303;28;20462;-78
2022/05/24 02:04:08;;;;;;;0.50;0.50;;;20.90;99.90;;;;;;5019718;28;20460;-78
2022/05/24 02:06:37;;;;;;;0.50;0.50;;;20.70;99.90;;;;;;5019345;28;21153;-78
2022/05/24 02:09:07;;;;;;;0.40;0.40;;;20.70;99.90;;;;;;5023901;28;20515;-77
2022/05/24 02:11:36;;;;;;;0.50;0.50;;;20.60;99.90;;;;;;5019813;28;20463;-78
2022/05/24 02:14:12;;;;;;;0.40;0.40;;;20.50;99.90;;;;;;5022395;28;20476;-78
2022/05/24 02:16:46;;;;;;;1.00;0.53;;;20.50;99.90;;;;;;5027533;28;20514;-78
2022/05/24 02:19:16;;;;;;;1.37;0.60;;;20.40;1.00;;;;;;5018989;28;20506;-78
2022/05/24 02:21:47;;;;;;;0.60;0.50;;;20.40;1.00;;;;;;5020367;28;20454;-78
2022/05/24 02:24:18;;;;;;;0.53;0.53;;;20.40;1.00;;;;;;5023180;28;20467;-78
2022/05/24 02:26:47;;;;;;;0.70;0.53;;;20.40;1.00;;;;;;5021773;28;20469;-78
2022/05/24 02:29:18;;;;;;;0.50;0.50;;;20.40;1.00;;;;;;5023287;28;20493;-79
2022/05/24 02:31:47;;;;;;;0.60;0.50;;;20.50;99.90;;;;;;5021150;28;20461;-78
2022/05/24 02:34:15;;;;;;;0.57;0.50;;;20.60;99.90;;;;;;5020571;28;20467;-78
2022/05/24 02:36:43;;;;;;;0.80;0.50;;;20.70;99.90;;;;;;5022384;28;20457;-78
2022/05/24 02:39:12;;;;;;;0.43;0.43;;;20.60;99.90;;;;;;5017645;28;21219;-78
2022/05/24 02:41:39;;;;;;;0.50;0.50;;;20.70;99.90;;;;;;5020355;28;20453;-79
2022/05/24 02:44:10;;;;;;;0.40;0.40;;;20.70;99.90;;;;;;5015908;28;20456;-78
2022/05/24 02:46:41;;;;;;;0.50;0.50;;;20.60;99.90;;;;;;5019329;28;20461;-78
2022/05/24 02:49:09;;;;;;;0.40;0.40;;;20.50;99.90;;;;;;5015084;28;20495;-78
2022/05/24 02:51:39;;;;;;;0.50;0.50;;;20.40;99.90;;;;;;5020950;28;20458;-79
2022/05/24 02:54:10;;;;;;;0.53;0.53;;;20.40;99.90;;;;;;5019838;28;20452;-78
2022/05/24 02:56:38;;;;;;;0.50;0.50;;;20.30;99.90;;;;;;5019423;28;20465;-79
2022/05/24 02:59:06;;;;;;;0.50;0.50;;;20.30;99.90;;;;;;5017504;28;20472;-79
2022/05/24 03:01:34;;;;;;;1.23;0.60;;;20.30;99.90;;;;;;5015478;28;20454;-78
2022/05/24 03:04:04;;;;;;;0.80;0.50;;;20.10;99.90;;;;;;5019652;28;20461;-79
2022/05/24 03:09:33;;;;;;;0.47;0.47;;;20.00;1.00;;;;;;5018090;28;21162;-77
2022/05/24 03:09:35;;;;;;;0.50;0.50;;;20.00;1.00;;;;;;5022604;28;20495;-78
2022/05/24 03:14:52;;;;;;;0.50;0.50;;;20.10;1.00;;;;;;5020998;28;20832;-78
2022/05/24 03:17:22;;;;;;;0.50;0.50;;;20.10;1.00;;;;;;5021379;28;20462;-78
2022/05/24 03:19:52;;;;;;;0.50;0.50;;;20.10;1.00;;;;;;5024331;28;20471;-78
2022/05/24 03:22:20;;;;;;;0.63;0.63;;;20.00;1.00;;;;;;5022340;28;20468;-78
2022/05/24 03:24:49;;;;;;;0.50;0.50;;;20.10;1.00;;;;;;5024072;28;20460;-78
2022/05/24 03:27:18;;;;;;;0.60;0.53;;;20.20;1.00;;;;;;5022258;28;20529;-77
2022/05/24 03:29:48;;;;;;;0.50;0.50;;;20.30;1.00;;;;;;5010270;28;20488;-79
2022/05/24 03:32:19;;;;;;;0.50;0.50;;;20.40;1.00;;;;;;5022158;28;20990;-79
2022/05/24 03:34:47;;;;;;;0.60;0.60;;;20.40;99.90;;;;;;5020512;28;21063;-79
2022/05/24 03:37:18;;;;;;;0.70;0.50;;;20.40;99.90;;;;;;5020756;28;20953;-79
2022/05/24 03:39:46;;;;;;;0.60;0.50;;;20.40;99.90;;;;;;5022706;28;20454;-78
2022/05/24 03:42:14;;;;;;;0.60;0.50;;;20.40;99.90;;;;;;5025973;28;20498;-78
2022/05/24 03:44:43;;;;;;;0.70;0.67;;;20.20;1.00;;;;;;5018902;28;20539;-77
2022/05/24 03:47:12;;;;;;;1.10;0.60;;;20.10;1.00;;;;;;5015535;28;20454;-78
2022/05/24 03:49:40;;;;;;;0.60;0.60;;;20.20;1.00;;;;;;5019735;28;20488;-78
2022/05/24 03:52:08;;;;;;;0.80;0.70;;;20.00;1.00;;;;;;5020466;28;20535;-79
2022/05/24 03:54:38;;;;;;;1.17;0.60;;;19.90;1.00;;;;;;5015637;28;20472;-78
2022/05/24 03:59:53;;;;;;;0.80;0.80;;;19.80;1.00;;;;;;5023010;28;20463;-79
2022/05/24 04:02:21;;;;;;;0.80;0.80;;;19.80;1.00;;;;;;5009127;28;20447;-78
2022/05/24 04:04:49;;;;;;;0.63;0.63;;;19.90;1.00;;;;;;5014707;28;20469;-79
2022/05/24 04:07:18;;;;;;;0.70;0.70;;;19.90;1.00;;;;;;5017336;28;20492;-78
2022/05/24 04:09:47;;;;;;;0.70;0.70;;;20.10;1.00;;;;;;5019473;28;20966;-78
2022/05/24 04:12:16;;;;;;;0.70;0.70;;;20.20;1.00;;;;;;5019621;28;20523;-79
2022/05/24 04:14:44;;;;;;;0.63;0.60;;;20.20;1.00;;;;;;5021113;28;20576;-78
2022/05/24 04:17:13;;;;;;;1.27;0.60;;;20.20;99.90;;;;;;5016157;28;20457;-78
2022/05/24 04:19:41;;;;;;;0.70;0.70;;;20.10;99.90;;;;;;5016193;28;20830;-76
2022/05/24 04:22:09;;;;;;;0.80;0.80;;;20.10;1.00;;;;;;5013436;28;20460;-77
2022/05/24 04:24:37;;;;;;;0.70;0.60;;;20.10;1.00;;;;;;5017135;28;20468;-76
2022/05/24 04:27:07;;;;;;;0.70;0.60;;;20.10;99.90;;;;;;5018142;28;20487;-76
2022/05/24 04:29:39;;;;;;;0.80;0.77;;;20.10;1.00;;;;;;5019915;28;20508;-75
2022/05/24 04:32:08;;;;;;;0.90;0.90;;;20.20;99.90;;;;;;5022722;28;21055;-76
2022/05/24 04:34:36;;;;;;;0.83;0.83;;;20.30;99.90;;;;;;5021213;28;20449;-73
2022/05/24 04:37:07;;;;;;;1.87;0.80;;;20.20;99.90;;;;;;5017224;28;20460;-77
2022/05/24 04:39:35;;;;;;;0.70;0.70;;;19.80;99.90;;;;;;5019486;28;21089;-77
2022/05/24 04:42:18;;;;;;;1.10;0.70;;;19.50;1.00;;;;;;5021147;28;20456;-77
2022/05/24 04:44:50;;;;;;;0.87;0.87;;;19.30;1.00;;;;;;5016251;28;21009;-76
2022/05/24 04:47:20;;;;;;;0.70;0.70;;;19.20;1.00;;;;;;5012757;28;20465;-76
2022/05/24 04:49:50;;;;;;;0.70;0.70;;;19.20;1.00;;;;;;5016547;28;20483;-77
2022/05/24 04:52:19;;;;;;;1.17;0.80;;;19.20;1.00;;;;;;5023271;28;20448;-76
2022/05/24 04:54:47;;;;;;;1.00;0.70;;;19.40;1.00;;;;;;5023143;28;20446;-76
2022/05/24 04:57:17;;;;;;;1.67;0.70;;;19.40;1.00;;;;;;5021669;28;21006;-76
2022/05/24 04:59:46;;;;;;;0.87;0.80;;;19.50;99.90;;;;;;5014747;28;20506;-73
2022/05/24 05:02:20;;;;;;;2.20;1.00;;;19.40;99.90;;;;;;5017244;28;20461;-74
2022/05/24 05:04:49;;;;;;;0.80;0.80;;;19.50;99.90;;;;;;5018230;28;20457;-72
2022/05/24 05:07:19;;;;;;;1.53;0.80;;;19.60;99.90;;;;;;5020263;28;20460;-73
2022/05/24 05:09:50;;;;;;;1.27;0.80;;;19.70;99.90;;;;;;5021649;28;20480;-75
2022/05/24 05:12:19;;;;;;;0.60;0.60;;;19.80;99.90;;;;;;5028219;28;20500;-74
2022/05/24 05:14:47;;;;;;;1.30;1.00;;;19.90;99.90;;;;;;5015127;28;20509;-76
2022/05/24 05:17:18;;;;;;;1.00;1.00;;;19.90;99.90;;;;;;5024421;28;20459;-76
2022/05/24 05:19:48;;;;;;;0.93;0.70;;;19.80;99.90;;;;;;5016808;28;20467;-76
2022/05/24 05:22:21;;;;;;;0.63;0.63;;;19.70;99.90;;;;;;5024331;28;20448;-77
2022/05/24 05:24:49;;;;;;;1.23;0.80;;;19.60;99.90;;;;;;5016269;28;20748;-76
2022/05/24 05:27:18;;;;;;;0.90;0.90;;;19.60;99.90;;;;;;5025718;28;20464;-76
2022/05/24 05:32:34;;;;;;;2.50;0.83;;;19.60;99.90;;;;;;5021859;28;20973;-77
2022/05/24 05:35:02;;;;;;;0.80;0.80;;;19.60;99.90;;;;;;5025821;28;20459;-76
2022/05/24 05:37:32;;;;;;;1.17;0.83;;;19.70;99.90;;;;;;5024381;28;20491;-75
2022/05/24 05:40:03;;;;;;;0.90;0.90;;;19.80;99.90;;;;;;5023215;28;21216;-76
2022/05/24 05:42:32;;;;;;;1.77;0.90;;;19.70;99.90;;;;;;5020705;28;20968;-76
2022/05/24 05:45:01;;;;;;;2.33;0.77;;;19.70;99.90;;;;;;5024575;28;20461;-76
2022/05/24 05:47:29;;;;;;;2.70;0.73;;;19.80;99.90;;;;;;5023371;28;20487;-77
2022/05/24 05:49:59;;;;;;;1.43;1.10;;;19.80;99.90;;;;;;5024020;28;20465;-77
2022/05/24 05:52:27;;;;;;;1.00;0.73;;;19.80;99.90;;;;;;5027725;28;20448;-77
2022/05/24 05:54:55;;;;;;;2.53;1.00;;;19.70;99.90;;;;;;5022675;28;20468;-77
2022/05/24 05:57:23;;;;;;;1.10;0.80;;;19.60;99.90;;;;;;5024668;28;20484;-77
2022/05/24 05:59:53;;;;;;;0.80;0.80;;;19.50;99.90;;;;;;5023596;28;20461;-76
2022/05/24 06:02:21;;;;;;;0.90;0.80;;;19.60;99.90;;;;;;5017697;28;20460;-77
2022/05/24 06:04:50;;;;;;;1.27;0.70;;;19.70;99.90;;;;;;5016019;28;20463;-77
2022/05/24 06:07:22;;;;;;;0.80;0.80;;;19.90;99.90;;;;;;5021721;28;20463;-77
2022/05/24 06:09:50;;;;;;;0.80;0.77;;;20.00;99.90;;;;;;5015885;28;20460;-76
2022/05/24 06:12:18;;;;;;;1.37;0.80;;;20.10;99.90;;;;;;5015329;28;20477;-75
2022/05/24 06:14:47;;;;;;;1.70;1.40;;;20.10;99.90;;;;;;5015701;28;20449;-76
2022/05/24 06:17:24;;;;;;;0.90;0.80;;;20.30;99.90;;;;;;5029881;28;20504;-76
2022/05/24 06:19:52;;;;;;;2.20;0.70;;;20.20;99.90;;;;;;5025094;28;20826;-76
2022/05/24 06:22:22;;;;;;;1.77;0.70;;;20.30;99.90;;;;;;5025609;28;20563;-75
2022/05/24 06:24:50;;;;;;;1.43;1.10;;;20.00;99.90;;;;;;5026535;28;20967;-76
2022/05/24 06:27:21;;;;;;;0.63;0.60;;;19.80;99.90;;;;;;5020970;28;20508;-75
2022/05/24 06:29:50;;;;;;;3.00;0.80;;;19.60;99.90;;;;;;5015647;28;20992;-75
2022/05/24 06:32:18;;;;;;;0.70;0.63;;;19.70;99.90;;;;;;5017237;28;20481;-75
2022/05/24 06:34:48;;;;;;;0.87;0.70;;;19.60;99.90;;;;;;5011262;28;20453;-76
2022/05/24 06:37:18;;;;;;;0.77;0.77;;;19.70;99.90;;;;;;5023361;28;20462;-76
2022/05/24 06:39:47;;;;;;;1.90;0.70;;;19.50;99.90;;;;;;5016423;28;20983;-76
2022/05/24 06:42:16;;;;;;;0.67;0.60;;;19.50;99.90;;;;;;5020091;28;20460;-76
2022/05/24 06:44:44;;;;;;;1.20;0.70;;;19.60;99.90;;;;;;5019979;28;20514;-76
2022/05/24 06:47:13;;;;;;;0.70;0.70;;;19.70;99.90;;;;;;5021970;28;21064;-76
2022/05/24 06:49:48;;;;;;;4.20;0.90;;;19.80;99.90;;;;;;5015980;28;20468;-76
2022/05/24 06:52:16;;;;;;;0.90;0.80;;;19.70;99.90;;;;;;5015768;28;20483;-76
2022/05/24 06:54:45;;;;;;;0.70;0.70;;;19.80;99.90;;;;;;5020110;28;20460;-76
2022/05/24 06:57:15;;;;;;;2.10;0.70;;;19.30;99.90;;;;;;5024144;28;20453;-76
2022/05/24 07:02:29;;;;;;;1.03;0.80;;;19.40;99.90;;;;;;5015298;28;20457;-76
2022/05/24 07:05:00;;;;;;;1.80;0.97;;;19.60;99.90;;;;;;5018838;28;20461;-76
2022/05/24 07:07:29;;;;;;;2.93;0.77;;;19.80;99.90;;;;;;5010325;28;20476;-76
2022/05/24 07:09:58;;;;;;;0.40;0.40;;;19.90;99.90;;;;;;5020109;28;20453;-76
2022/05/24 07:12:28;;;;;;;0.50;0.50;;;19.60;99.90;;;;;;5014389;28;20491;-77
2022/05/24 07:14:59;;;;;;;0.90;0.47;;;19.50;99.90;;;;;;5014667;28;20452;-76
2022/05/24 07:17:28;;;;;;;1.70;0.50;;;19.40;99.90;;;;;;5012546;28;20572;-76
2022/05/24 07:19:56;;;;;;;0.50;0.50;;;19.50;99.90;;;;;;5015340;28;20460;-76
2022/05/24 07:22:24;;;;;;;0.50;0.40;;;19.40;99.90;;;;;;5015923;28;20941;-77
2022/05/24 07:24:53;;;;;;;0.53;0.40;;;19.30;99.90;;;;;;5015846;28;20515;-77
2022/05/24 07:27:23;;;;;;;1.17;0.40;;;19.20;99.90;;;;;;5018862;28;20488;-76
2022/05/24 07:29:52;;;;;;;0.40;0.40;;;19.20;99.90;;;;;;5016878;28;20942;-76
2022/05/24 07:32:20;;;;;;;0.47;0.43;;;19.20;99.90;;;;;;5014980;28;20996;-77
2022/05/24 07:34:49;;;;;;;0.60;0.50;;;19.30;99.90;;;;;;5020152;28;20466;-76
2022/05/24 07:37:20;;;;;;;0.67;0.50;;;19.30;99.90;;;;;;5018171;28;20452;-76
2022/05/24 07:39:48;;;;;;;0.70;0.50;;;19.30;99.90;;;;;;5017861;28;20469;-76
2022/05/24 07:48:00;;;;;;;0.60;0.53;;;19.30;99.90;;;;;;5020278;28;20484;-76
2022/05/24 07:50:29;;;;;;;0.57;0.57;;;19.20;99.90;;;;;;5019902;28;20460;-76
2022/05/24 07:52:57;;;;;;;0.30;0.30;;;19.20;99.90;;;;;;5018014;28;20492;-76
2022/05/24 07:55:26;;;;;;;1.00;0.63;;;19.10;99.90;;;;;;5014309;28;20515;-77
2022/05/24 07:57:54;;;;;;;0.40;0.40;;;19.20;99.90;;;;;;5013382;28;20483;-75
2022/05/24 08:00:24;;;;;;;0.40;0.40;;;19.20;99.90;;;;;;5013314;28;20859;-77
2022/05/24 08:02:53;;;;;;;0.40;0.40;;;19.20;99.90;;;;;;5012454;28;20569;-76
2022/05/24 08:05:23;;;;;;;0.87;0.50;;;19.30;99.90;;;;;;5021472;28;20463;-76
2022/05/24 08:07:54;;;;;;;0.60;0.60;;;19.20;99.90;;;;;;5021488;28;20539;-76
2022/05/24 08:10:22;;;;;;;0.50;0.40;;;19.20;99.90;;;;;;5018033;28;20575;-76
2022/05/24 08:12:50;;;;;;;0.50;0.50;;;19.20;99.90;;;;;;5023504;28;20515;-76
2022/05/24 08:15:19;;;;;;;0.33;0.33;;;19.30;99.90;;;;;;5020566;28;20547;-76
2022/05/24 08:17:49;;;;;;;0.50;0.50;;;19.40;99.90;;;;;;5012318;28;20553;-76
2022/05/24 08:20:18;;;;;;;0.40;0.40;;;19.50;99.90;;;;;;5018591;28;20524;-76
2022/05/24 08:22:47;;;;;;;0.50;0.50;;;19.50;99.90;;;;;;5022997;28;20456;-76
2022/05/24 08:25:16;;;;;;;0.40;0.40;;;19.60;99.90;;;;;;5024309;28;20527;-77
2022/05/24 08:27:45;;;;;;;0.90;0.50;;;19.60;99.90;;;;;;5031080;28;20556;-76
2022/05/24 08:30:16;;;;;;;0.60;0.50;;;19.60;99.90;;;;;;5018771;28;20485;-77
2022/05/24 08:32:46;;;;;;;0.40;0.40;;;19.60;99.90;;;;;;5015648;28;20822;-77
2022/05/24 08:35:18;;;;;;;0.40;0.30;;;19.70;99.90;;;;;;5025365;28;20444;-77
2022/05/24 08:37:47;;;;;;;0.50;0.43;;;19.80;99.90;;;;;;5027582;28;20471;-77
2022/05/24 08:40:18;;;;;;;0.43;0.40;;;19.70;99.90;;;;;;5026931;28;20452;-77
2022/05/24 08:43:18;;;;;;;0.80;0.50;;;19.60;99.90;;;;;;5020769;28;20937;-76
2022/05/24 08:48:44;;;;;;;0.70;0.50;;;19.60;99.90;;;;;;5021280;28;20461;-76
2022/05/24 08:51:18;;;;;;;0.40;0.40;;;19.60;99.90;;;;;;5020570;28;20535;-77
2022/05/24 08:53:49;;;;;;;0.50;0.50;;;19.60;99.90;;;;;;5017986;28;20616;-78
2022/05/24 08:56:21;;;;;;;0.40;0.40;;;19.60;99.90;;;;;;5018373;28;20464;-76
2022/05/24 08:58:52;;;;;;;0.40;0.40;;;19.60;99.90;;;;;;5023456;28;20468;-76
2022/05/24 09:01:25;;;;;;;0.60;0.50;;;19.60;99.90;;;;;;5020525;28;20452;-77
2022/05/24 09:03:53;;;;;;;1.93;0.50;;;19.70;99.90;;;;;;5017650;28;20636;-76
2022/05/24 09:06:34;;;;;;;1.50;0.60;;;19.70;99.90;;;;;;5029816;28;20436;-77
2022/05/24 09:09:21;;;;;;;0.53;0.50;;;19.80;99.90;;;;;;5018881;28;20515;-77
2022/05/24 09:12:00;;;;;;;2.00;0.50;;;19.90;99.90;;;;;;5019293;28;20511;-77
2022/05/24 09:14:40;;;;;;;0.47;0.47;;;20.00;99.90;;;;;;5027859;28;20452;-77
2022/05/24 09:17:33;;;;;;;1.23;0.50;;;20.10;99.90;;;;;;5024105;28;20638;-77
2022/05/24 09:20:04;;;;;;;1.90;0.57;;;20.10;99.90;;;;;;5019020;28;20460;-76
2022/05/24 09:22:35;;;;;;;0.73;0.60;;;20.10;99.90;;;;;;5023911;28;20548;-77
2022/05/24 09:25:06;;;;;;;0.60;0.50;;;20.20;99.90;;;;;;5021358;28;20936;-76
2022/05/24 09:27:49;;;;;;;0.40;0.40;;;20.20;99.90;;;;;;5025790;28;20476;-77
2022/05/24 09:30:25;;;;;;;1.53;0.50;;;20.30;99.90;;;;;;5011170;28;20454;-76
2022/05/24 09:32:54;;;;;;;0.53;0.50;;;20.30;99.90;;;;;;5029015;28;20498;-76
2022/05/24 09:35:26;;;;;;;0.63;0.50;;;20.30;99.90;;;;;;5024635;28;20503;-77
2022/05/24 09:38:14;;;;;;;0.40;0.40;;;20.30;99.90;;;;;;5029798;28;20479;-76
2022/05/24 09:40:49;;;;;;;0.80;0.50;;;20.40;99.90;;;;;;5023530;28;20456;-77
2022/05/24 09:43:29;;;;;;;0.50;0.50;;;20.50;99.90;;;;;;5027178;28;20451;-77
2022/05/24 09:46:01;;;;;;;0.80;0.50;;;20.50;99.90;;;;;;5024316;28;20449;-77
2022/05/24 09:48:31;;;;;;;0.90;0.77;;;20.40;99.90;;;;;;5018524;28;20484;-77
2022/05/24 09:51:02;;;;;;;0.50;0.50;;;20.30;99.90;;;;;;5030874;28;20467;-77
2022/05/24 09:53:33;;;;;;;0.50;0.50;;;20.40;99.90;;;;;;5030159;28;21052;-77
2022/05/24 09:56:04;;;;;;;1.23;0.90;;;20.50;99.90;;;;;;5030551;28;20465;-77
2022/05/24 09:58:36;;;;;;;0.40;0.40;;;20.70;99.90;;;;;;5030208;28;20476;-78
2022/05/24 10:01:08;;;;;;;1.53;0.50;;;20.50;99.90;;;;;;5030814;28;20518;-77
2022/05/24 10:03:38;;;;;;;0.87;0.73;;;20.70;99.90;;;;;;5025331;28;20616;-77
2022/05/24 10:06:13;;;;;;;0.40;0.40;;;20.80;99.90;;;;;;5028844;28;20472;-77
2022/05/24 10:08:45;;;;;;;1.03;0.40;;;20.80;99.90;;;;;;5028403;28;20472;-77
2022/05/24 10:11:26;;;;;;;0.40;0.40;;;20.90;99.90;;;;;;5014880;28;20464;-77
2022/05/24 10:14:07;;;;;;;0.60;0.50;;;21.00;99.90;;;;;;5014311;28;20491;-76
2022/05/24 10:16:38;;;;;;;1.13;0.50;;;21.00;99.90;;;;;;5015380;28;20464;-76
2022/05/24 10:19:31;;;;;;;0.40;0.40;;;21.10;99.90;;;;;;5021146;28;20481;-77
2022/05/24 10:22:04;;;;;;;0.40;0.40;;;21.00;99.90;;;;;;5022117;28;20474;-76
2022/05/24 10:24:47;;;;;;;0.50;0.50;;;21.10;99.90;;;;;;5018616;28;20449;-77
2022/05/24 10:27:25;;;;;;;1.00;1.00;;;21.30;99.90;;;;;;5017296;28;20993;-76
2022/05/24 10:30:02;;;;;;;0.43;0.43;;;21.40;99.90;;;;;;5018042;28;20453;-76
2022/05/24 10:38:57;;;;;;;0.53;0.50;;;21.00;99.90;;;;;;5025943;28;20483;-77
2022/05/24 10:41:30;;;;;;;0.47;0.47;;;21.10;99.90;;;;;;5022561;28;20973;-77
2022/05/24 10:44:05;;;;;;;0.40;0.40;;;21.30;99.90;;;;;;5029588;28;20467;-77
2022/05/24 10:46:43;;;;;;;1.37;0.50;;;21.30;99.90;;;;;;5029835;28;20458;-77
2022/05/24 10:49:21;;;;;;;0.50;0.50;;;21.40;99.90;;;;;;5029959;28;20544;-77
2022/05/24 10:51:55;;;;;;;0.50;0.50;;;21.40;99.90;;;;;;5019005;28;20457;-77
2022/05/24 10:54:37;;;;;;;0.47;0.47;;;21.30;99.90;;;;;;5019329;28;20554;-77
2022/05/24 10:57:11;;;;;;;0.50;0.50;;;21.40;99.90;;;;;;5016315;28;20960;-77
2022/05/24 10:59:49;;;;;;;0.87;0.40;;;21.10;99.90;;;;;;5020320;28;20466;-76
2022/05/24 11:02:24;;;;;;;1.93;0.63;;;20.90;99.90;;;;;;5022652;28;20452;-76
2022/05/24 11:04:58;;;;;;;1.13;0.50;;;21.10;99.90;;;;;;5028974;28;20543;-76
2022/05/24 11:07:28;;;;;;;0.40;0.40;;;21.20;99.90;;;;;;5020930;28;20455;-77
2022/05/24 11:10:05;;;;;;;0.93;0.50;;;21.40;99.90;;;;;;5027522;28;20874;-76
2022/05/24 11:12:42;;;;;;;1.80;0.50;;;21.40;99.90;;;;;;5024589;28;20480;-77
2022/05/24 11:15:16;;;;;;;0.40;0.40;;;21.30;99.90;;;;;;5025482;28;20499;-76
2022/05/24 11:17:46;;;;;;;0.50;0.50;;;21.10;99.90;;;;;;5018496;28;20557;-76
2022/05/24 11:20:21;;;;;;;0.50;0.50;;;21.30;99.90;;;;;;5028967;28;21112;-76
2022/05/24 11:23:00;;;;;;;0.60;0.40;;;21.40;99.90;;;;;;5025603;28;20504;-76
2022/05/24 11:25:34;;;;;;;0.50;0.50;;;21.50;99.90;;;;;;5021818;28;20534;-76
2022/05/24 11:28:25;;;;;;;0.50;0.50;;;21.40;99.90;;;;;;5024023;28;20538;-75
2022/05/24 11:30:55;;;;;;;0.50;0.40;;;21.50;99.90;;;;;;5029203;28;21042;-76
2022/05/24 11:33:39;;;;;;;0.60;0.50;;;21.50;99.90;;;;;;5024316;28;20497;-76
2022/05/24 11:36:40;;;;;;;0.60;0.60;;;21.40;99.90;;;;;;5014339;28;20595;-76
2022/05/24 11:39:26;;;;;;;0.50;0.50;;;21.50;99.90;;;;;;5024411;28;20472;-76
2022/05/24 11:42:26;;;;;;;0.77;0.50;;;21.60;99.90;;;;;;5021528;28;20444;-76
2022/05/24 11:44:58;;;;;;;0.50;0.50;;;21.70;99.90;;;;;;4982118;28;20479;-76
2022/05/24 11:47:57;;;;;;;0.60;0.50;;;21.50;99.90;;;;;;5016864;28;20475;-76
2022/05/24 11:50:39;;;;;;;0.40;0.40;;;21.60;99.90;;;;;;5025299;28;20468;-76
2022/05/24 11:53:09;;;;;;;1.43;0.50;;;21.80;99.90;;;;;;5020224;28;20489;-77
2022/05/24 11:55:47;;;;;;;0.97;0.50;;;21.80;99.90;;;;;;5023050;28;20478;-76
2022/05/24 11:58:51;;;;;;;0.60;0.60;;;21.70;99.90;;;;;;5022471;28;20473;-76
2022/05/24 12:01:49;;;;;;;0.50;0.50;;;21.60;99.90;;;;;;5006108;28;20999;-76
2022/05/24 12:10:51;;;;;;;0.53;0.50;;;21.80;99.90;;;;;;5018497;28;20451;-76
2022/05/24 12:13:31;;;;;;;1.13;0.50;;;21.80;99.90;;;;;;5021572;28;20964;-76
2022/05/24 12:16:22;;;;;;;0.60;0.50;;;21.90;99.90;;;;;;5028421;28;20460;-76
2022/05/24 12:18:59;;;;;;;0.57;0.57;;;21.90;99.90;;;;;;5030513;28;20919;-76
2022/05/24 12:21:52;;;;;;;2.50;0.60;;;21.90;99.90;;;;;;5024776;28;21409;-76
2022/05/24 12:24:34;;;;;;;0.47;0.47;;;21.90;99.90;;;;;;5011263;28;21388;-76
2022/05/24 12:27:15;;;;;;;0.60;0.60;;;21.90;99.90;;;;;;5027329;28;20455;-76
2022/05/24 12:29:47;;;;;;;0.73;0.50;;;22.00;99.90;;;;;;5018777;28;20828;-76
2022/05/24 12:32:18;;;;;;;0.50;0.50;;;22.00;99.90;;;;;;5025338;28;20459;-77
2022/05/24 12:34:48;;;;;;;0.90;0.50;;;22.00;99.90;;;;;;5026637;28;20487;-77
2022/05/24 12:37:24;;;;;;;0.67;0.50;;;22.00;99.90;;;;;;5020015;28;20483;-77
2022/05/24 12:40:13;;;;;;;0.50;0.50;;;21.90;99.90;;;;;;5027582;28;20463;-77
2022/05/24 12:42:47;;;;;;;0.97;0.50;;;22.00;99.90;;;;;;5027676;28;20455;-76
2022/05/24 12:45:21;;;;;;;0.50;0.50;;;22.10;99.90;;;;;;5015816;28;20808;-76
2022/05/24 12:47:53;;;;;;;0.73;0.50;;;22.10;99.90;;;;;;5011005;28;20528;-77
2022/05/24 12:50:31;;;;;;;0.67;0.60;;;22.20;99.90;;;;;;5022579;28;20456;-76
2022/05/24 12:53:02;;;;;;;0.43;0.43;;;22.20;99.90;;;;;;5026529;28;20533;-77
2022/05/24 12:58:28;;;;;;;0.83;0.70;;;22.00;99.90;;;;;;5017096;28;20827;-77
2022/05/24 13:01:13;;;;;;;0.77;0.50;;;21.90;99.90;;;;;;5027713;28;20841;-76
2022/05/24 13:03:58;;;;;;;0.90;0.60;;;21.80;99.90;;;;;;5015362;28;20506;-77
2022/05/24 13:06:30;;;;;;;1.03;0.50;;;22.00;99.90;;;;;;5026331;28;21037;-77
2022/05/24 13:09:21;;;;;;;0.40;0.40;;;22.10;99.90;;;;;;5020375;28;20477;-77
2022/05/24 13:11:53;;;;;;;0.60;0.50;;;22.30;99.90;;;;;;5030608;28;20867;-76
2022/05/24 13:14:48;;;;;;;1.30;0.63;;;22.30;99.90;;;;;;5031799;28;20598;-77
2022/05/24 13:17:20;;;;;;;0.53;0.50;;;22.20;99.90;;;;;;5026039;28;20462;-77
2022/05/24 13:19:54;;;;;;;0.50;0.50;;;22.30;99.90;;;;;;5028802;28;20814;-76
2022/05/24 13:22:26;;;;;;;1.20;0.50;;;22.30;99.90;;;;;;5028163;28;20455;-77
2022/05/24 13:25:00;;;;;;;0.50;0.50;;;22.40;99.90;;;;;;5022261;28;20444;-75
2022/05/24 13:27:50;;;;;;;0.77;0.60;;;22.40;99.90;;;;;;5022130;28;20454;-77
2022/05/24 13:33:35;;;;;;;0.53;0.50;;;22.40;99.70;;;;;;5025527;28;20508;-76
2022/05/24 13:36:20;;;;;;;0.70;0.50;;;22.40;99.20;;;;;;5022958;28;21302;-76
2022/05/24 13:39:09;;;;;;;0.90;0.50;;;22.50;98.50;;;;;;5024581;28;20486;-75
2022/05/24 13:41:39;;;;;;;0.50;0.50;;;22.50;98.80;;;;;;5031668;28;20468;-75
2022/05/24 13:44:30;;;;;;;0.70;0.47;;;22.60;98.00;;;;;;5026663;28;20515;-76
2022/05/24 13:47:01;;;;;;;0.93;0.50;;;22.60;98.30;;;;;;5025606;28;20945;-77
2022/05/24 13:49:40;;;;;;;0.63;0.50;;;22.60;98.00;;;;;;5030737;28;20467;-78
2022/05/24 13:52:28;;;;;;;0.50;0.50;;;22.60;99.90;;;;;;5022113;28;22132;-78
2022/05/24 13:55:18;;;;;;;0.60;0.50;;;22.70;99.90;;;;;;5028278;28;21021;-79
2022/05/24 13:57:53;;;;;;;0.50;0.50;;;22.80;99.90;;;;;;5029905;28;21036;-78
2022/05/24 14:00:32;;;;;;;0.70;0.50;;;22.90;99.90;;;;;;5029392;28;20463;-77
2022/05/24 14:03:26;;;;;;;0.60;0.60;;;23.00;99.90;;;;;;5020050;28;20814;-77